sensor_id;sensor_type;location;lat;lon;timestamp;temperature;humidity
18974;DHT22;9621;48.690;9.466;2023-06-10T00:00:25;12.80;81.40
18974;DHT22;9621;48.690;9.466;2023-06-10T00:02:52;12.70;81.40
18974;DHT22;9621;48.690;9.466;2023-06-10T00:05:19;12.70;81.70
18974;DHT22;9621;48.690;9.466;2023-06-10T00:07:48;12.60;81.90
18974;DHT22;9621;48.690;9.466;2023-06-10T00:10:15;12.50;82.30
18974;DHT22;9621;48.690;9.466;2023-06-10T00:12:42;12.50;82.10
18974;DHT22;9621;48.690;9.466;2023-06-10T00:15:10;12.40;82.20
18974;DHT22;9621;48.690;9.466;2023-06-10T00:17:37;12.40;82.40
18974;DHT22;9621;48.690;9.466;2023-06-10T00:20:06;12.40;83.30
18974;DHT22;9621;48.690;9.466;2023-06-10T00:22:34;12.40;83.00
18974;DHT22;9621;48.690;9.466;2023-06-10T00:25:03;12.40;82.80
18974;DHT22;9621;48.690;9.466;2023-06-10T00:27:31;12.30;83.20
18974;DHT22;9621;48.690;9.466;2023-06-10T00:30:01;12.30;83.10
18974;DHT22;9621;48.690;9.466;2023-06-10T00:32:29;12.30;83.40
18974;DHT22;9621;48.690;9.466;2023-06-10T00:34:58;12.20;83.60
18974;DHT22;9621;48.690;9.466;2023-06-10T00:37:25;12.20;84.00
18974;DHT22;9621;48.690;9.466;2023-06-10T00:39:51;12.10;83.90
18974;DHT22;9621;48.690;9.466;2023-06-10T00:42:20;12.10;84.30
18974;DHT22;9621;48.690;9.466;2023-06-10T00:44:49;12.10;84.90
18974;DHT22;9621;48.690;9.466;2023-06-10T00:47:16;12.00;84.40
18974;DHT22;9621;48.690;9.466;2023-06-10T00:49:44;11.90;84.30
18974;DHT22;9621;48.690;9.466;2023-06-10T00:52:11;11.90;85.20
18974;DHT22;9621;48.690;9.466;2023-06-10T00:54:39;11.80;84.80
18974;DHT22;9621;48.690;9.466;2023-06-10T00:57:06;11.80;84.80
18974;DHT22;9621;48.690;9.466;2023-06-10T00:59:34;11.80;85.00
18974;DHT22;9621;48.690;9.466;2023-06-10T01:02:03;11.80;85.50
18974;DHT22;9621;48.690;9.466;2023-06-10T01:04:30;11.80;85.50
18974;DHT22;9621;48.690;9.466;2023-06-10T01:07:04;11.70;85.50
18974;DHT22;9621;48.690;9.466;2023-06-10T01:09:40;11.70;86.70
18974;DHT22;9621;48.690;9.466;2023-06-10T01:12:14;11.70;86.40
18974;DHT22;9621;48.690;9.466;2023-06-10T01:14:45;11.70;86.80
18974;DHT22;9621;48.690;9.466;2023-06-10T01:17:12;11.60;86.70
18974;DHT22;9621;48.690;9.466;2023-06-10T01:19:42;11.70;86.50
18974;DHT22;9621;48.690;9.466;2023-06-10T01:22:10;11.60;86.70
18974;DHT22;9621;48.690;9.466;2023-06-10T01:24:41;11.50;87.10
18974;DHT22;9621;48.690;9.466;2023-06-10T01:27:12;11.50;87.00
18974;DHT22;9621;48.690;9.466;2023-06-10T01:29:43;11.50;87.70
18974;DHT22;9621;48.690;9.466;2023-06-10T01:32:17;11.40;87.90
18974;DHT22;9621;48.690;9.466;2023-06-10T01:34:45;11.40;88.10
18974;DHT22;9621;48.690;9.466;2023-06-10T01:37:17;11.40;87.50
18974;DHT22;9621;48.690;9.466;2023-06-10T01:39:45;11.40;88.40
18974;DHT22;9621;48.690;9.466;2023-06-10T01:42:13;11.40;88.30
18974;DHT22;9621;48.690;9.466;2023-06-10T01:44:40;11.30;88.20
18974;DHT22;9621;48.690;9.466;2023-06-10T01:47:08;11.30;88.20
18974;DHT22;9621;48.690;9.466;2023-06-10T01:49:36;11.30;88.20
18974;DHT22;9621;48.690;9.466;2023-06-10T01:52:03;11.30;88.60
18974;DHT22;9621;48.690;9.466;2023-06-10T01:54:31;11.20;88.80
18974;DHT22;9621;48.690;9.466;2023-06-10T01:57:00;11.20;89.30
18974;DHT22;9621;48.690;9.466;2023-06-10T01:59:27;11.20;89.30
18974;DHT22;9621;48.690;9.466;2023-06-10T02:01:54;11.20;89.50
18974;DHT22;9621;48.690;9.466;2023-06-10T02:04:21;11.20;89.60
18974;DHT22;9621;48.690;9.466;2023-06-10T02:06:48;11.10;89.60
18974;DHT22;9621;48.690;9.466;2023-06-10T02:09:16;11.10;89.60
18974;DHT22;9621;48.690;9.466;2023-06-10T02:11:45;11.10;90.00
18974;DHT22;9621;48.690;9.466;2023-06-10T02:14:12;11.10;90.30
18974;DHT22;9621;48.690;9.466;2023-06-10T02:16:38;11.00;90.20
18974;DHT22;9621;48.690;9.466;2023-06-10T02:19:06;11.00;90.20
18974;DHT22;9621;48.690;9.466;2023-06-10T02:21:33;11.00;90.30
18974;DHT22;9621;48.690;9.466;2023-06-10T02:24:00;11.00;90.40
18974;DHT22;9621;48.690;9.466;2023-06-10T02:26:28;10.90;90.40
18974;DHT22;9621;48.690;9.466;2023-06-10T02:28:57;10.90;90.50
18974;DHT22;9621;48.690;9.466;2023-06-10T02:31:24;10.90;90.70
18974;DHT22;9621;48.690;9.466;2023-06-10T02:33:51;10.90;90.70
18974;DHT22;9621;48.690;9.466;2023-06-10T02:36:18;10.80;90.90
18974;DHT22;9621;48.690;9.466;2023-06-10T02:38:47;10.80;91.10
18974;DHT22;9621;48.690;9.466;2023-06-10T02:41:13;10.80;91.30
18974;DHT22;9621;48.690;9.466;2023-06-10T02:43:40;10.80;91.50
18974;DHT22;9621;48.690;9.466;2023-06-10T02:46:09;10.70;91.80
18974;DHT22;9621;48.690;9.466;2023-06-10T02:48:41;10.70;92.20
18974;DHT22;9621;48.690;9.466;2023-06-10T02:51:09;10.70;92.40
18974;DHT22;9621;48.690;9.466;2023-06-10T02:53:36;10.70;92.00
18974;DHT22;9621;48.690;9.466;2023-06-10T02:56:03;10.70;92.20
18974;DHT22;9621;48.690;9.466;2023-06-10T02:58:30;10.70;92.30
18974;DHT22;9621;48.690;9.466;2023-06-10T03:00:57;10.70;92.30
18974;DHT22;9621;48.690;9.466;2023-06-10T03:03:26;10.70;92.40
18974;DHT22;9621;48.690;9.466;2023-06-10T03:05:53;10.80;92.70
18974;DHT22;9621;48.690;9.466;2023-06-10T03:08:20;10.70;92.60
18974;DHT22;9621;48.690;9.466;2023-06-10T03:10:47;10.70;93.00
18974;DHT22;9621;48.690;9.466;2023-06-10T03:13:13;10.70;92.80
18974;DHT22;9621;48.690;9.466;2023-06-10T03:15:41;10.60;92.70
18974;DHT22;9621;48.690;9.466;2023-06-10T03:18:08;10.70;93.10
18974;DHT22;9621;48.690;9.466;2023-06-10T03:20:36;10.70;92.90
18974;DHT22;9621;48.690;9.466;2023-06-10T03:23:05;10.70;93.20
18974;DHT22;9621;48.690;9.466;2023-06-10T03:25:32;10.60;93.00
18974;DHT22;9621;48.690;9.466;2023-06-10T03:27:59;10.60;93.10
18974;DHT22;9621;48.690;9.466;2023-06-10T03:30:27;10.60;93.10
18974;DHT22;9621;48.690;9.466;2023-06-10T03:32:54;10.60;93.30
18974;DHT22;9621;48.690;9.466;2023-06-10T03:35:20;10.60;93.40
18974;DHT22;9621;48.690;9.466;2023-06-10T03:37:49;10.60;93.80
18974;DHT22;9621;48.690;9.466;2023-06-10T03:40:16;10.60;93.70
18974;DHT22;9621;48.690;9.466;2023-06-10T03:42:43;10.60;93.70
18974;DHT22;9621;48.690;9.466;2023-06-10T03:45:10;10.60;93.60
18974;DHT22;9621;48.690;9.466;2023-06-10T03:47:38;10.70;93.50
18974;DHT22;9621;48.690;9.466;2023-06-10T03:50:07;10.70;93.50
18974;DHT22;9621;48.690;9.466;2023-06-10T03:52:35;10.70;93.70
18974;DHT22;9621;48.690;9.466;2023-06-10T03:55:04;10.80;93.90
18974;DHT22;9621;48.690;9.466;2023-06-10T03:57:31;11.00;94.10
18974;DHT22;9621;48.690;9.466;2023-06-10T03:59:59;11.10;94.00
18974;DHT22;9621;48.690;9.466;2023-06-10T04:02:25;11.30;94.10
18974;DHT22;9621;48.690;9.466;2023-06-10T04:04:52;11.50;94.10
18974;DHT22;9621;48.690;9.466;2023-06-10T04:07:19;11.80;93.90
18974;DHT22;9621;48.690;9.466;2023-06-10T04:09:46;12.10;93.80
18974;DHT22;9621;48.690;9.466;2023-06-10T04:12:15;12.30;93.50
18974;DHT22;9621;48.690;9.466;2023-06-10T04:14:42;12.60;93.20
18974;DHT22;9621;48.690;9.466;2023-06-10T04:17:09;12.80;93.00
18974;DHT22;9621;48.690;9.466;2023-06-10T04:19:36;13.10;92.90
18974;DHT22;9621;48.690;9.466;2023-06-10T04:22:04;13.40;92.60
18974;DHT22;9621;48.690;9.466;2023-06-10T04:24:31;13.70;92.30
18974;DHT22;9621;48.690;9.466;2023-06-10T04:26:58;13.90;91.90
18974;DHT22;9621;48.690;9.466;2023-06-10T04:29:27;14.30;91.50
18974;DHT22;9621;48.690;9.466;2023-06-10T04:31:54;14.50;91.20
18974;DHT22;9621;48.690;9.466;2023-06-10T04:34:21;14.80;90.90
18974;DHT22;9621;48.690;9.466;2023-06-10T04:36:48;15.30;89.20
18974;DHT22;9621;48.690;9.466;2023-06-10T04:39:16;15.40;90.40
18974;DHT22;9621;48.690;9.466;2023-06-10T04:41:44;15.60;90.00
18974;DHT22;9621;48.690;9.466;2023-06-10T04:44:11;15.90;89.50
18974;DHT22;9621;48.690;9.466;2023-06-10T04:46:39;16.10;88.70
18974;DHT22;9621;48.690;9.466;2023-06-10T04:49:06;16.40;87.90
18974;DHT22;9621;48.690;9.466;2023-06-10T04:51:33;16.70;87.50
18974;DHT22;9621;48.690;9.466;2023-06-10T04:54:01;16.90;86.60
18974;DHT22;9621;48.690;9.466;2023-06-10T04:56:29;17.20;86.00
18974;DHT22;9621;48.690;9.466;2023-06-10T04:58:56;17.50;85.30
18974;DHT22;9621;48.690;9.466;2023-06-10T05:01:23;17.80;84.70
18974;DHT22;9621;48.690;9.466;2023-06-10T05:03:51;18.10;84.00
18974;DHT22;9621;48.690;9.466;2023-06-10T05:06:19;18.30;82.80
18974;DHT22;9621;48.690;9.466;2023-06-10T05:08:46;18.70;82.20
18974;DHT22;9621;48.690;9.466;2023-06-10T05:11:13;19.00;81.50
18974;DHT22;9621;48.690;9.466;2023-06-10T05:13:41;19.20;81.30
18974;DHT22;9621;48.690;9.466;2023-06-10T05:16:09;19.50;79.40
18974;DHT22;9621;48.690;9.466;2023-06-10T05:18:39;19.70;79.30
18974;DHT22;9621;48.690;9.466;2023-06-10T05:21:08;20.00;78.80
18974;DHT22;9621;48.690;9.466;2023-06-10T05:23:34;20.30;78.10
18974;DHT22;9621;48.690;9.466;2023-06-10T05:26:02;20.60;77.80
18974;DHT22;9621;48.690;9.466;2023-06-10T05:28:29;20.90;77.20
18974;DHT22;9621;48.690;9.466;2023-06-10T05:30:56;21.10;76.20
18974;DHT22;9621;48.690;9.466;2023-06-10T05:33:23;21.40;75.50
18974;DHT22;9621;48.690;9.466;2023-06-10T05:35:50;21.70;75.10
18974;DHT22;9621;48.690;9.466;2023-06-10T05:38:18;21.90;74.10
18974;DHT22;9621;48.690;9.466;2023-06-10T05:40:45;22.30;73.30
18974;DHT22;9621;48.690;9.466;2023-06-10T05:43:12;22.60;72.80
18974;DHT22;9621;48.690;9.466;2023-06-10T05:45:42;22.90;72.20
18974;DHT22;9621;48.690;9.466;2023-06-10T05:48:09;23.20;71.20
18974;DHT22;9621;48.690;9.466;2023-06-10T05:50:36;23.60;70.60
18974;DHT22;9621;48.690;9.466;2023-06-10T05:53:05;23.80;69.80
18974;DHT22;9621;48.690;9.466;2023-06-10T05:55:35;24.10;68.80
18974;DHT22;9621;48.690;9.466;2023-06-10T05:58:02;24.40;67.00
18974;DHT22;9621;48.690;9.466;2023-06-10T06:00:29;24.50;66.20
18974;DHT22;9621;48.690;9.466;2023-06-10T06:02:56;24.60;66.70
18974;DHT22;9621;48.690;9.466;2023-06-10T06:05:24;24.80;66.20
18974;DHT22;9621;48.690;9.466;2023-06-10T06:07:51;24.70;65.40
18974;DHT22;9621;48.690;9.466;2023-06-10T06:10:19;24.80;64.20
18974;DHT22;9621;48.690;9.466;2023-06-10T06:12:47;24.80;64.40
18974;DHT22;9621;48.690;9.466;2023-06-10T06:18:45;24.80;63.60
18974;DHT22;9621;48.690;9.466;2023-06-10T06:21:12;24.90;62.90
18974;DHT22;9621;48.690;9.466;2023-06-10T06:23:40;25.10;63.80
18974;DHT22;9621;48.690;9.466;2023-06-10T06:26:06;25.30;63.20
18974;DHT22;9621;48.690;9.466;2023-06-10T06:28:34;25.60;62.50
18974;DHT22;9621;48.690;9.466;2023-06-10T06:31:01;25.80;62.10
18974;DHT22;9621;48.690;9.466;2023-06-10T06:33:28;25.90;61.30
18974;DHT22;9621;48.690;9.466;2023-06-10T06:35:56;26.10;60.80
18974;DHT22;9621;48.690;9.466;2023-06-10T06:38:23;26.30;60.30
18974;DHT22;9621;48.690;9.466;2023-06-10T06:40:50;26.50;60.90
18974;DHT22;9621;48.690;9.466;2023-06-10T06:43:17;26.70;59.90
18974;DHT22;9621;48.690;9.466;2023-06-10T06:45:44;27.00;58.80
18974;DHT22;9621;48.690;9.466;2023-06-10T06:48:11;27.00;58.70
18974;DHT22;9621;48.690;9.466;2023-06-10T06:50:38;27.10;58.20
18974;DHT22;9621;48.690;9.466;2023-06-10T07:03:24;26.60;61.10
18974;DHT22;9621;48.690;9.466;2023-06-10T07:05:50;26.40;59.50
18974;DHT22;9621;48.690;9.466;2023-06-10T07:08:17;26.60;59.80
18974;DHT22;9621;48.690;9.466;2023-06-10T07:10:47;26.80;59.60
18974;DHT22;9621;48.690;9.466;2023-06-10T07:13:14;27.10;59.00
18974;DHT22;9621;48.690;9.466;2023-06-10T07:15:41;27.40;58.50
18974;DHT22;9621;48.690;9.466;2023-06-10T07:18:08;27.60;58.40
18974;DHT22;9621;48.690;9.466;2023-06-10T07:20:36;27.90;58.00
18974;DHT22;9621;48.690;9.466;2023-06-10T07:23:03;28.10;56.60
18974;DHT22;9621;48.690;9.466;2023-06-10T07:25:30;28.20;55.70
18974;DHT22;9621;48.690;9.466;2023-06-10T07:27:57;28.20;55.50
18974;DHT22;9621;48.690;9.466;2023-06-10T07:30:24;28.30;56.70
18974;DHT22;9621;48.690;9.466;2023-06-10T07:32:51;28.30;55.90
18974;DHT22;9621;48.690;9.466;2023-06-10T07:35:18;28.50;55.20
18974;DHT22;9621;48.690;9.466;2023-06-10T07:37:46;28.50;54.70
18974;DHT22;9621;48.690;9.466;2023-06-10T07:40:13;28.60;54.70
18974;DHT22;9621;48.690;9.466;2023-06-10T07:42:40;28.60;54.30
18974;DHT22;9621;48.690;9.466;2023-06-10T07:45:08;28.60;54.40
18974;DHT22;9621;48.690;9.466;2023-06-10T07:47:35;28.60;54.00
18974;DHT22;9621;48.690;9.466;2023-06-10T07:50:02;28.60;53.50
18974;DHT22;9621;48.690;9.466;2023-06-10T07:52:29;28.50;53.80
18974;DHT22;9621;48.690;9.466;2023-06-10T07:54:58;28.50;53.80
18974;DHT22;9621;48.690;9.466;2023-06-10T07:57:25;28.60;54.10
18974;DHT22;9621;48.690;9.466;2023-06-10T07:59:55;28.80;54.20
18974;DHT22;9621;48.690;9.466;2023-06-10T08:02:23;29.00;53.10
18974;DHT22;9621;48.690;9.466;2023-06-10T08:04:50;29.10;52.80
18974;DHT22;9621;48.690;9.466;2023-06-10T08:07:17;29.10;53.10
18974;DHT22;9621;48.690;9.466;2023-06-10T08:09:44;29.20;52.80
18974;DHT22;9621;48.690;9.466;2023-06-10T08:12:13;29.30;52.50
18974;DHT22;9621;48.690;9.466;2023-06-10T08:14:40;29.40;52.60
18974;DHT22;9621;48.690;9.466;2023-06-10T08:17:07;29.60;52.00
18974;DHT22;9621;48.690;9.466;2023-06-10T08:19:34;29.80;52.10
18974;DHT22;9621;48.690;9.466;2023-06-10T08:22:01;30.00;51.50
18974;DHT22;9621;48.690;9.466;2023-06-10T08:24:28;30.10;51.50
18974;DHT22;9621;48.690;9.466;2023-06-10T08:26:55;30.20;50.70
18974;DHT22;9621;48.690;9.466;2023-06-10T08:29:25;30.20;49.90
18974;DHT22;9621;48.690;9.466;2023-06-10T08:31:53;30.20;49.50
18974;DHT22;9621;48.690;9.466;2023-06-10T08:34:19;30.10;49.70
18974;DHT22;9621;48.690;9.466;2023-06-10T08:36:46;30.10;50.10
18974;DHT22;9621;48.690;9.466;2023-06-10T08:39:18;30.20;50.50
18974;DHT22;9621;48.690;9.466;2023-06-10T08:41:51;30.30;49.60
18974;DHT22;9621;48.690;9.466;2023-06-10T08:44:28;30.30;48.90
18974;DHT22;9621;48.690;9.466;2023-06-10T08:46:56;30.20;48.90
18974;DHT22;9621;48.690;9.466;2023-06-10T08:49:26;30.30;49.80
18974;DHT22;9621;48.690;9.466;2023-06-10T08:51:57;30.40;49.20
18974;DHT22;9621;48.690;9.466;2023-06-10T08:54:28;30.50;48.80
18974;DHT22;9621;48.690;9.466;2023-06-10T08:56:57;30.60;48.40
18974;DHT22;9621;48.690;9.466;2023-06-10T08:59:27;30.50;48.80
18974;DHT22;9621;48.690;9.466;2023-06-10T09:01:54;30.60;49.40
18974;DHT22;9621;48.690;9.466;2023-06-10T09:04:22;30.70;48.80
18974;DHT22;9621;48.690;9.466;2023-06-10T09:06:51;30.80;48.50
18974;DHT22;9621;48.690;9.466;2023-06-10T09:09:19;31.00;47.80
18974;DHT22;9621;48.690;9.466;2023-06-10T09:11:46;31.10;48.10
18974;DHT22;9621;48.690;9.466;2023-06-10T09:14:14;31.30;48.50
18974;DHT22;9621;48.690;9.466;2023-06-10T09:16:43;31.50;48.40
18974;DHT22;9621;48.690;9.466;2023-06-10T09:19:12;31.90;46.80
18974;DHT22;9621;48.690;9.466;2023-06-10T09:21:40;32.10;45.90
18974;DHT22;9621;48.690;9.466;2023-06-10T09:24:07;32.20;45.80
18974;DHT22;9621;48.690;9.466;2023-06-10T09:26:34;32.10;46.30
18974;DHT22;9621;48.690;9.466;2023-06-10T09:29:03;32.10;46.20
18974;DHT22;9621;48.690;9.466;2023-06-10T09:31:31;32.00;45.70
18974;DHT22;9621;48.690;9.466;2023-06-10T09:34:07;32.10;45.80
18974;DHT22;9621;48.690;9.466;2023-06-10T09:36:35;31.90;45.50
18974;DHT22;9621;48.690;9.466;2023-06-10T09:39:03;31.70;45.10
18974;DHT22;9621;48.690;9.466;2023-06-10T09:41:34;31.60;45.40
18974;DHT22;9621;48.690;9.466;2023-06-10T09:44:02;31.60;45.40
18974;DHT22;9621;48.690;9.466;2023-06-10T09:46:35;31.50;45.50
18974;DHT22;9621;48.690;9.466;2023-06-10T09:49:02;31.30;45.00
18974;DHT22;9621;48.690;9.466;2023-06-10T09:51:32;31.00;45.80
18974;DHT22;9621;48.690;9.466;2023-06-10T09:54:00;30.80;46.10
18974;DHT22;9621;48.690;9.466;2023-06-10T09:56:35;30.90;47.40
18974;DHT22;9621;48.690;9.466;2023-06-10T09:59:03;31.20;47.30
18974;DHT22;9621;48.690;9.466;2023-06-10T10:01:31;31.70;46.60
18974;DHT22;9621;48.690;9.466;2023-06-10T10:03:59;32.10;44.90
18974;DHT22;9621;48.690;9.466;2023-06-10T10:06:26;32.30;45.00
18974;DHT22;9621;48.690;9.466;2023-06-10T10:08:55;32.30;44.80
18974;DHT22;9621;48.690;9.466;2023-06-10T10:11:23;32.30;46.00
18974;DHT22;9621;48.690;9.466;2023-06-10T10:13:52;32.40;44.70
18974;DHT22;9621;48.690;9.466;2023-06-10T10:16:21;32.50;44.30
18974;DHT22;9621;48.690;9.466;2023-06-10T10:18:54;32.60;43.70
18974;DHT22;9621;48.690;9.466;2023-06-10T10:21:23;32.60;43.60
18974;DHT22;9621;48.690;9.466;2023-06-10T10:23:58;32.50;43.80
18974;DHT22;9621;48.690;9.466;2023-06-10T10:26:27;32.30;44.00
18974;DHT22;9621;48.690;9.466;2023-06-10T10:29:03;32.20;43.40
18974;DHT22;9621;48.690;9.466;2023-06-10T10:31:33;32.10;42.50
18974;DHT22;9621;48.690;9.466;2023-06-10T10:34:04;32.00;42.70
18974;DHT22;9621;48.690;9.466;2023-06-10T10:36:33;32.00;42.70
18974;DHT22;9621;48.690;9.466;2023-06-10T10:39:01;31.90;43.00
18974;DHT22;9621;48.690;9.466;2023-06-10T10:41:30;31.70;43.10
18974;DHT22;9621;48.690;9.466;2023-06-10T10:43:58;31.70;43.40
18974;DHT22;9621;48.690;9.466;2023-06-10T10:46:26;31.80;43.10
18974;DHT22;9621;48.690;9.466;2023-06-10T10:48:53;31.90;42.60
18974;DHT22;9621;48.690;9.466;2023-06-10T10:51:23;31.90;43.00
18974;DHT22;9621;48.690;9.466;2023-06-10T10:54:13;31.80;42.70
18974;DHT22;9621;48.690;9.466;2023-06-10T10:57:09;31.60;43.10
18974;DHT22;9621;48.690;9.466;2023-06-10T10:59:50;31.50;43.40
18974;DHT22;9621;48.690;9.466;2023-06-10T11:02:18;31.30;43.80
18974;DHT22;9621;48.690;9.466;2023-06-10T11:04:58;31.50;43.80
18974;DHT22;9621;48.690;9.466;2023-06-10T11:07:25;31.60;44.10
18974;DHT22;9621;48.690;9.466;2023-06-10T11:09:59;31.70;43.70
18974;DHT22;9621;48.690;9.466;2023-06-10T11:12:42;31.70;42.90
18974;DHT22;9621;48.690;9.466;2023-06-10T11:15:19;31.80;42.80
18974;DHT22;9621;48.690;9.466;2023-06-10T11:20:55;32.10;42.60
18974;DHT22;9621;48.690;9.466;2023-06-10T11:23:32;32.10;42.40
18974;DHT22;9621;48.690;9.466;2023-06-10T11:26:11;32.20;42.10
18974;DHT22;9621;48.690;9.466;2023-06-10T11:28:39;32.30;41.40
18974;DHT22;9621;48.690;9.466;2023-06-10T11:31:06;32.20;42.70
18974;DHT22;9621;48.690;9.466;2023-06-10T11:33:33;32.10;42.30
18974;DHT22;9621;48.690;9.466;2023-06-10T11:36:00;32.00;41.70
18974;DHT22;9621;48.690;9.466;2023-06-10T11:38:28;31.90;42.30
18974;DHT22;9621;48.690;9.466;2023-06-10T11:40:55;32.00;42.10
18974;DHT22;9621;48.690;9.466;2023-06-10T11:43:24;31.90;41.80
18974;DHT22;9621;48.690;9.466;2023-06-10T11:45:54;31.70;41.70
18974;DHT22;9621;48.690;9.466;2023-06-10T11:48:21;31.40;42.10
18974;DHT22;9621;48.690;9.466;2023-06-10T11:50:48;31.20;42.30
18974;DHT22;9621;48.690;9.466;2023-06-10T11:53:15;30.90;43.10
18974;DHT22;9621;48.690;9.466;2023-06-10T11:55:44;30.80;43.30
18974;DHT22;9621;48.690;9.466;2023-06-10T11:58:15;30.80;43.60
18974;DHT22;9621;48.690;9.466;2023-06-10T12:00:47;30.90;42.90
18974;DHT22;9621;48.690;9.466;2023-06-10T12:03:15;31.10;42.90
18974;DHT22;9621;48.690;9.466;2023-06-10T12:05:56;31.30;43.50
18974;DHT22;9621;48.690;9.466;2023-06-10T12:08:24;31.60;42.20
18974;DHT22;9621;48.690;9.466;2023-06-10T12:10:51;31.90;41.80
18974;DHT22;9621;48.690;9.466;2023-06-10T12:13:18;32.00;41.50
18974;DHT22;9621;48.690;9.466;2023-06-10T12:15:47;32.00;41.00
18974;DHT22;9621;48.690;9.466;2023-06-10T12:18:17;31.80;41.20
18974;DHT22;9621;48.690;9.466;2023-06-10T12:20:44;31.70;41.40
18974;DHT22;9621;48.690;9.466;2023-06-10T12:23:12;31.60;42.10
18974;DHT22;9621;48.690;9.466;2023-06-10T12:25:39;31.50;41.00
18974;DHT22;9621;48.690;9.466;2023-06-10T12:28:15;31.50;41.70
18974;DHT22;9621;48.690;9.466;2023-06-10T12:30:43;31.50;42.40
18974;DHT22;9621;48.690;9.466;2023-06-10T12:33:17;31.60;42.00
18974;DHT22;9621;48.690;9.466;2023-06-10T12:35:48;31.70;41.40
18974;DHT22;9621;48.690;9.466;2023-06-10T12:38:21;31.70;41.30
18974;DHT22;9621;48.690;9.466;2023-06-10T12:40:50;31.70;41.60
18974;DHT22;9621;48.690;9.466;2023-06-10T12:43:19;31.70;42.30
18974;DHT22;9621;48.690;9.466;2023-06-10T12:45:46;31.80;42.20
18974;DHT22;9621;48.690;9.466;2023-06-10T12:48:20;32.00;41.40
18974;DHT22;9621;48.690;9.466;2023-06-10T12:50:51;32.00;40.30
18974;DHT22;9621;48.690;9.466;2023-06-10T12:53:19;32.00;40.40
18974;DHT22;9621;48.690;9.466;2023-06-10T12:55:46;32.00;40.70
18974;DHT22;9621;48.690;9.466;2023-06-10T12:58:13;32.00;39.90
18974;DHT22;9621;48.690;9.466;2023-06-10T13:00:40;32.00;39.70
18974;DHT22;9621;48.690;9.466;2023-06-10T13:03:08;31.80;39.90
18974;DHT22;9621;48.690;9.466;2023-06-10T13:05:37;31.60;40.10
18974;DHT22;9621;48.690;9.466;2023-06-10T13:08:05;31.50;40.10
18974;DHT22;9621;48.690;9.466;2023-06-10T13:10:32;31.40;40.70
18974;DHT22;9621;48.690;9.466;2023-06-10T13:13:00;31.40;41.20
18974;DHT22;9621;48.690;9.466;2023-06-10T13:15:27;31.50;41.40
18974;DHT22;9621;48.690;9.466;2023-06-10T13:17:54;31.60;41.20
18974;DHT22;9621;48.690;9.466;2023-06-10T13:20:21;31.70;41.50
18974;DHT22;9621;48.690;9.466;2023-06-10T13:22:50;31.70;41.30
18974;DHT22;9621;48.690;9.466;2023-06-10T13:25:17;31.70;40.40
18974;DHT22;9621;48.690;9.466;2023-06-10T13:27:44;31.50;40.60
18974;DHT22;9621;48.690;9.466;2023-06-10T13:30:11;31.20;40.90
18974;DHT22;9621;48.690;9.466;2023-06-10T13:32:38;30.90;41.40
18974;DHT22;9621;48.690;9.466;2023-06-10T13:35:06;30.70;41.90
18974;DHT22;9621;48.690;9.466;2023-06-10T13:37:33;30.70;42.50
18974;DHT22;9621;48.690;9.466;2023-06-10T13:40:02;30.60;41.80
18974;DHT22;9621;48.690;9.466;2023-06-10T13:42:30;30.60;41.90
18974;DHT22;9621;48.690;9.466;2023-06-10T13:44:57;30.70;42.60
18974;DHT22;9621;48.690;9.466;2023-06-10T13:47:23;30.90;42.80
18974;DHT22;9621;48.690;9.466;2023-06-10T13:49:51;31.10;42.30
18974;DHT22;9621;48.690;9.466;2023-06-10T13:52:18;31.20;41.50
18974;DHT22;9621;48.690;9.466;2023-06-10T13:54:45;31.20;41.20
18974;DHT22;9621;48.690;9.466;2023-06-10T13:57:14;31.00;40.80
18974;DHT22;9621;48.690;9.466;2023-06-10T13:59:41;30.70;40.90
18974;DHT22;9621;48.690;9.466;2023-06-10T14:02:09;30.30;41.50
18974;DHT22;9621;48.690;9.466;2023-06-10T14:04:35;30.20;42.40
18974;DHT22;9621;48.690;9.466;2023-06-10T14:07:02;30.20;42.80
18974;DHT22;9621;48.690;9.466;2023-06-10T14:09:29;30.20;42.60
18974;DHT22;9621;48.690;9.466;2023-06-10T14:11:56;30.20;42.80
18974;DHT22;9621;48.690;9.466;2023-06-10T14:14:25;30.10;42.30
18974;DHT22;9621;48.690;9.466;2023-06-10T14:16:53;29.90;42.20
18974;DHT22;9621;48.690;9.466;2023-06-10T14:19:19;29.70;42.20
18974;DHT22;9621;48.690;9.466;2023-06-10T14:21:47;29.50;42.80
18974;DHT22;9621;48.690;9.466;2023-06-10T14:24:15;29.40;43.50
18974;DHT22;9621;48.690;9.466;2023-06-10T14:26:41;29.40;43.90
18974;DHT22;9621;48.690;9.466;2023-06-10T14:29:08;29.60;44.00
18974;DHT22;9621;48.690;9.466;2023-06-10T14:31:36;29.70;43.70
18974;DHT22;9621;48.690;9.466;2023-06-10T14:34:03;29.90;43.60
18974;DHT22;9621;48.690;9.466;2023-06-10T14:36:33;30.10;44.10
18974;DHT22;9621;48.690;9.466;2023-06-10T14:39:00;30.40;43.50
18974;DHT22;9621;48.690;9.466;2023-06-10T14:41:27;30.40;42.60
18974;DHT22;9621;48.690;9.466;2023-06-10T14:43:54;30.30;42.20
18974;DHT22;9621;48.690;9.466;2023-06-10T14:46:22;29.90;42.20
18974;DHT22;9621;48.690;9.466;2023-06-10T14:48:50;29.60;42.90
18974;DHT22;9621;48.690;9.466;2023-06-10T14:51:17;29.40;43.80
18974;DHT22;9621;48.690;9.466;2023-06-10T14:53:46;29.30;44.30
18974;DHT22;9621;48.690;9.466;2023-06-10T14:56:13;29.30;44.30
18974;DHT22;9621;48.690;9.466;2023-06-10T14:58:40;29.40;44.20
18974;DHT22;9621;48.690;9.466;2023-06-10T15:01:07;29.60;44.00
18974;DHT22;9621;48.690;9.466;2023-06-10T15:03:34;29.70;43.30
18974;DHT22;9621;48.690;9.466;2023-06-10T15:06:03;29.90;42.80
18974;DHT22;9621;48.690;9.466;2023-06-10T15:08:30;29.90;43.20
18974;DHT22;9621;48.690;9.466;2023-06-10T15:10:56;30.10;41.90
18974;DHT22;9621;48.690;9.466;2023-06-10T15:13:24;30.20;42.70
18974;DHT22;9621;48.690;9.466;2023-06-10T15:15:51;30.20;42.10
18974;DHT22;9621;48.690;9.466;2023-06-10T15:18:18;30.30;43.00
18974;DHT22;9621;48.690;9.466;2023-06-10T15:20:45;30.30;42.40
18974;DHT22;9621;48.690;9.466;2023-06-10T15:23:13;30.30;43.30
18974;DHT22;9621;48.690;9.466;2023-06-10T15:25:41;30.30;42.30
18974;DHT22;9621;48.690;9.466;2023-06-10T15:28:08;30.40;42.80
18974;DHT22;9621;48.690;9.466;2023-06-10T15:30:34;30.50;42.90
18974;DHT22;9621;48.690;9.466;2023-06-10T15:33:03;30.60;43.10
18974;DHT22;9621;48.690;9.466;2023-06-10T15:35:31;30.80;43.00
18974;DHT22;9621;48.690;9.466;2023-06-10T15:37:58;30.90;42.10
18974;DHT22;9621;48.690;9.466;2023-06-10T15:40:27;31.00;41.80
18974;DHT22;9621;48.690;9.466;2023-06-10T15:42:53;31.10;41.40
18974;DHT22;9621;48.690;9.466;2023-06-10T15:45:20;31.10;40.70
18974;DHT22;9621;48.690;9.466;2023-06-10T15:47:47;31.10;40.30
18974;DHT22;9621;48.690;9.466;2023-06-10T15:50:14;31.00;40.30
18974;DHT22;9621;48.690;9.466;2023-06-10T15:52:41;30.90;40.30
18974;DHT22;9621;48.690;9.466;2023-06-10T15:55:08;31.00;40.30
18974;DHT22;9621;48.690;9.466;2023-06-10T15:57:37;30.90;40.40
18974;DHT22;9621;48.690;9.466;2023-06-10T16:00:05;30.90;40.60
18974;DHT22;9621;48.690;9.466;2023-06-10T16:02:33;30.90;40.30
18974;DHT22;9621;48.690;9.466;2023-06-10T16:05:00;30.90;40.30
18974;DHT22;9621;48.690;9.466;2023-06-10T16:07:28;30.90;40.60